Time;durP1;ratioP1;P1;durP2;ratioP2;P2;SDS_P1;SDS_P2;PMS_P1;PMS_P2;Temp;Humidity;BMP_temperature;BMP_pressure;BME280_temperature;BME280_humidity;BME280_pressure;Samples;Min_cycle;Max_cycle;Signal;HPM_P1;HPM_P2
2022/01/15 00:00:12;;;;;;;6.78;3.80;;;;;;;5.61;100.00;103283.63;4858547;29;20379;-66
2022/01/15 00:02:37;;;;;;;6.72;3.58;;;;;;;5.58;100.00;103288.88;4873084;29;20040;-66
2022/01/15 00:05:04;;;;;;;10.20;4.03;;;;;;;5.57;100.00;103289.72;4872546;29;20033;-66
2022/01/15 00:07:29;;;;;;;8.75;3.75;;;;;;;5.58;100.00;103294.13;4855848;29;20036;-67
2022/01/15 00:09:55;;;;;;;10.55;4.18;;;;;;;5.57;100.00;103280.09;4872355;29;20036;-66
2022/01/15 00:12:20;;;;;;;6.75;4.10;;;;;;;5.57;100.00;103271.34;4873458;29;20032;-66
2022/01/15 00:14:46;;;;;;;7.07;3.67;;;;;;;5.55;100.00;103263.41;4872098;29;20056;-66
2022/01/15 00:17:19;;;;;;;6.53;3.63;;;;;;;5.53;100.00;103254.63;4856516;29;20511;-67
2022/01/15 00:19:46;;;;;;;5.63;3.33;;;;;;;5.54;100.00;103250.25;4871402;29;20040;-67
2022/01/15 00:22:17;;;;;;;9.43;3.80;;;;;;;5.54;100.00;103251.16;4873584;29;20278;-66
2022/01/15 00:24:43;;;;;;;6.75;3.65;;;;;;;5.55;100.00;103252.00;4871852;29;20127;-66
2022/01/15 00:27:09;;;;;;;5.85;3.80;;;;;;;5.54;100.00;103238.00;4873325;29;20510;-66
2022/01/15 00:29:35;;;;;;;9.32;3.97;;;;;;;5.54;100.00;103240.63;4873498;29;20036;-66
2022/01/15 00:32:02;;;;;;;7.78;3.90;;;;;;;5.53;100.00;103238.88;4872455;29;20499;-66
2022/01/15 00:34:30;;;;;;;8.88;4.55;;;;;;;5.53;100.00;103238.88;4853522;29;20029;-67
2022/01/15 00:36:55;;;;;;;8.45;4.60;;;;;;;5.53;100.00;103244.13;4873726;29;20061;-66
2022/01/15 00:39:21;;;;;;;10.27;4.68;;;;;;;5.55;100.00;103252.00;4872594;29;20044;-66
2022/01/15 00:41:47;;;;;;;8.55;4.97;;;;;;;5.54;100.00;103248.50;4870690;29;20040;-63
2022/01/15 00:44:13;;;;;;;16.80;4.88;;;;;;;5.54;100.00;103243.25;4872264;29;20040;-66
2022/01/15 00:46:39;;;;;;;9.57;4.80;;;;;;;5.54;100.00;103238.00;4872146;29;20037;-67
2022/01/15 00:49:04;;;;;;;11.25;4.70;;;;;;;5.54;100.00;103227.50;4871360;29;20041;-66
2022/01/15 00:51:30;;;;;;;14.13;5.93;;;;;;;5.53;100.00;103232.72;4873093;29;20683;-66
2022/01/15 00:53:55;;;;;;;11.18;5.57;;;;;;;5.54;100.00;103248.50;4872152;29;20033;-64
2022/01/15 00:56:21;;;;;;;9.15;4.90;;;;;;;5.53;100.00;103254.63;4855198;29;20085;-64
2022/01/15 00:58:47;;;;;;;9.18;4.28;;;;;;;5.53;100.00;103249.38;4872134;29;20063;-65
2022/01/15 01:01:12;;;;;;;12.40;5.15;;;;;;;5.53;100.00;103241.50;4872696;29;20052;-65
2022/01/15 01:03:38;;;;;;;12.68;5.75;;;;;;;5.51;100.00;103232.69;4862334;29;20071;-65
2022/01/15 01:06:03;;;;;;;10.02;5.10;;;;;;;5.51;100.00;103221.31;4870844;29;20101;-65
2022/01/15 01:08:29;;;;;;;13.88;5.18;;;;;;;5.50;100.00;103228.28;4871992;29;20184;-65
2022/01/15 01:10:57;;;;;;;10.13;5.93;;;;;;;5.50;100.00;103236.19;4871436;29;20153;-65
2022/01/15 01:24:05;;;;;;;9.95;5.95;;;;;;;5.48;100.00;103227.41;4870083;29;20048;-65
2022/01/15 01:26:39;;;;;;;9.75;5.68;;;;;;;5.48;100.00;103230.03;4870254;29;20212;-65
2022/01/15 01:29:17;;;;;;;14.25;6.53;;;;;;;5.49;100.00;103239.66;4872512;29;20043;-65
2022/01/15 01:32:49;;;;;;;15.88;4.90;;;;;;;5.48;100.00;103245.78;4875894;29;20040;-65
2022/01/15 01:34:41;;;;;;;11.43;6.05;;;;;;;5.48;100.00;103235.28;4861226;29;20068;-65
2022/01/15 01:37:24;;;;;;;9.95;4.80;;;;;;;5.48;100.00;103227.41;4876668;29;20054;-65
2022/01/15 01:39:54;;;;;;;7.93;4.40;;;;;;;5.46;100.00;103215.09;4875432;29;20036;-65
2022/01/15 01:45:08;;;;;;;7.45;4.70;;;;;;;5.43;100.00;103223.81;4875569;29;20032;-66
2022/01/15 01:47:43;;;;;;;7.88;4.57;;;;;;;5.42;100.00;103222.06;4875590;29;20491;-65
2022/01/15 01:50:16;;;;;;;8.07;5.03;;;;;;;5.41;100.00;103222.91;4873385;29;20132;-65
2022/01/15 01:52:42;;;;;;;;;;;;;;;5.40;100.00;103213.28;4875544;29;20136;-65
2022/01/15 01:55:08;;;;;;;8.80;5.32;;;;;;;5.39;100.00;103216.78;4873487;29;19923;-65
2022/01/15 01:57:34;;;;;;;11.50;5.30;;;;;;;5.38;100.00;103217.59;4875006;29;20484;-65
2022/01/15 01:59:59;;;;;;;9.15;4.75;;;;;;;5.37;100.00;103211.50;4874994;29;20063;-64
2022/01/15 02:02:25;;;;;;;9.32;4.88;;;;;;;5.35;100.00;103214.94;4875278;29;20037;-65
2022/01/15 02:04:50;;;;;;;10.85;5.40;;;;;;;5.34;100.00;103208.78;4874920;29;20037;-65
2022/01/15 02:07:16;;;;;;;6.63;4.47;;;;;;;5.34;100.00;103200.91;4875072;29;20040;-65
2022/01/15 02:09:42;;;;;;;7.18;4.95;;;;;;;5.34;100.00;103200.91;4874687;29;20033;-65
2022/01/15 02:12:07;;;;;;;8.10;5.38;;;;;;;5.35;100.00;103207.97;4875157;29;20570;-65
2022/01/15 02:14:33;;;;;;;7.65;4.85;;;;;;;5.33;100.00;103203.53;4876303;29;20619;-65
2022/01/15 02:16:59;;;;;;;8.00;5.40;;;;;;;5.34;100.00;103203.53;4874869;29;20043;-65
2022/01/15 02:19:30;;;;;;;8.80;5.78;;;;;;;5.35;100.00;103199.19;4873816;29;20460;-65
2022/01/15 02:24:39;;;;;;;9.50;6.10;;;;;;;5.32;100.00;103192.16;4869822;29;20038;-65
2022/01/15 02:27:05;;;;;;;9.82;6.10;;;;;;;5.30;100.00;103186.84;4876782;29;20099;-65
2022/01/15 02:29:30;;;;;;;9.18;5.82;;;;;;;5.32;100.00;103188.66;4876884;29;20539;-65
2022/01/15 02:31:56;;;;;;;9.98;5.72;;;;;;;5.32;100.00;103191.28;4869948;29;20056;-65
2022/01/15 02:34:21;;;;;;;9.63;6.30;;;;;;;5.32;100.00;103189.50;4874612;29;20074;-65
2022/01/15 02:36:47;;;;;;;9.38;5.70;;;;;;;5.33;100.00;103187.78;4874828;29;20579;-65
2022/01/15 02:39:12;;;;;;;9.25;5.53;;;;;;;5.33;100.00;103187.78;4874065;29;20066;-65
2022/01/15 02:41:38;;;;;;;10.15;6.00;;;;;;;5.33;100.00;103177.28;4874301;29;20044;-65
2022/01/15 02:44:09;;;;;;;9.40;5.95;;;;;;;5.32;100.00;103181.63;4874484;29;20027;-65
2022/01/15 02:48:00;;;;;;;11.50;6.72;;;;;;;5.31;100.00;103172.00;4865729;29;20107;-65
2022/01/15 02:49:20;;;;;;;12.38;6.60;;;;;;;5.32;100.00;103167.63;4862668;29;20131;-65
2022/01/15 02:51:46;;;;;;;11.00;6.45;;;;;;;5.32;100.00;103167.63;4874504;29;20068;-65
2022/01/15 02:54:11;;;;;;;11.80;7.20;;;;;;;5.32;100.00;103165.00;4874095;29;20064;-65
2022/01/15 02:56:38;;;;;;;8.88;5.60;;;;;;;5.32;100.00;103165.00;4875531;29;20032;-65
2022/01/15 02:59:05;;;;;;;9.45;6.20;;;;;;;5.31;100.00;103166.75;4874005;29;20040;-65
2022/01/15 03:01:31;;;;;;;10.38;5.90;;;;;;;5.31;100.00;103158.84;4874107;29;22063;-65
2022/01/15 03:03:57;;;;;;;12.32;6.68;;;;;;;5.30;100.00;103152.72;4873857;29;20037;-65
2022/01/15 03:06:23;;;;;;;8.88;5.53;;;;;;;5.32;100.00;103165.00;4873822;29;20373;-65
2022/01/15 03:08:49;;;;;;;11.13;6.28;;;;;;;5.32;100.00;103170.25;4837315;29;20040;-65
2022/01/15 03:11:15;;;;;;;8.38;5.25;;;;;;;5.32;100.00;103170.25;4873849;29;20536;-65
2022/01/15 03:13:42;;;;;;;8.75;5.32;;;;;;;5.30;100.00;103157.97;4873969;29;20041;-65
2022/01/15 03:16:10;;;;;;;7.90;5.45;;;;;;;5.32;100.00;103154.50;4872469;29;20097;-65
2022/01/15 03:18:35;;;;;;;8.95;5.28;;;;;;;5.30;100.00;103152.72;4874232;29;20041;-65
2022/01/15 03:21:01;;;;;;;6.75;4.72;;;;;;;5.29;100.00;103145.69;4873837;29;20391;-65
2022/01/15 03:23:27;;;;;;;7.07;4.38;;;;;;;5.30;100.00;103159.72;4873556;29;20041;-64
2022/01/15 03:25:53;;;;;;;7.00;3.97;;;;;;;5.30;100.00;103151.84;4874313;29;20064;-65
2022/01/15 03:28:18;;;;;;;5.95;4.03;;;;;;;5.29;100.00;103147.47;4873144;29;21440;-65
2022/01/15 03:30:44;;;;;;;6.25;3.92;;;;;;;5.28;100.00;103127.28;4875140;29;20028;-65
2022/01/15 03:33:10;;;;;;;5.72;3.75;;;;;;;5.29;100.00;103129.06;4873529;29;20555;-65
2022/01/15 03:35:36;;;;;;;5.90;4.38;;;;;;;5.29;100.00;103131.69;4872298;29;20040;-65
2022/01/15 03:38:03;;;;;;;7.25;4.03;;;;;;;5.28;100.00;103128.16;4873229;29;20117;-65
2022/01/15 03:40:31;;;;;;;6.03;3.80;;;;;;;5.29;100.00;103129.06;4869910;29;20045;-65
2022/01/15 03:42:56;;;;;;;6.40;3.83;;;;;;;5.26;100.00;103116.78;4873477;29;20096;-65
2022/01/15 03:45:22;;;;;;;5.07;3.75;;;;;;;5.26;100.00;103108.00;4855893;29;20044;-65
2022/01/15 03:47:47;;;;;;;5.15;3.70;;;;;;;5.26;100.00;103108.00;4874003;29;20040;-65
2022/01/15 03:50:14;;;;;;;4.25;3.42;;;;;;;5.26;100.00;103124.66;4873525;29;20551;-65
2022/01/15 03:52:40;;;;;;;5.13;3.40;;;;;;;5.26;100.00;103123.75;4873156;29;20037;-65
2022/01/15 03:55:06;;;;;;;5.70;3.25;;;;;;;5.25;100.00;103122.91;4873525;29;20412;-65
2022/01/15 03:57:32;;;;;;;4.68;3.22;;;;;;;5.25;100.00;103117.63;4872853;29;20036;-65
2022/01/15 03:59:59;;;;;;;5.32;2.83;;;;;;;5.25;100.00;103101.88;4874141;29;20051;-65
2022/01/15 04:02:24;;;;;;;3.42;2.90;;;;;;;5.25;100.00;103100.97;4872799;29;20657;-65
2022/01/15 04:04:50;;;;;;;3.72;3.03;;;;;;;5.24;100.00;103114.97;4873378;29;20037;-64
2022/01/15 04:07:15;;;;;;;4.55;2.88;;;;;;;5.24;100.00;103107.97;4872684;29;20128;-65
2022/01/15 04:09:41;;;;;;;4.47;3.03;;;;;;;5.22;100.00;103101.81;4871279;29;20047;-65
2022/01/15 04:12:07;;;;;;;4.43;3.08;;;;;;;5.22;100.00;103100.97;4873722;29;20038;-65
2022/01/15 04:14:33;;;;;;;4.00;2.83;;;;;;;5.23;100.00;103095.69;4872909;29;20800;-65
2022/01/15 04:16:58;;;;;;;5.85;2.70;;;;;;;5.23;100.00;103094.84;4874190;29;20197;-65
2022/01/15 04:19:25;;;;;;;4.10;2.78;;;;;;;5.23;100.00;103092.22;4872327;29;20392;-65
2022/01/15 04:21:51;;;;;;;3.72;2.85;;;;;;;5.22;100.00;103096.56;4872456;29;20059;-65
2022/01/15 04:24:17;;;;;;;3.80;2.40;;;;;;;5.23;100.00;103102.72;4872645;29;20034;-65
2022/01/15 04:26:43;;;;;;;4.28;2.80;;;;;;;5.23;100.00;103100.97;4872918;29;20123;-65
2022/01/15 04:29:08;;;;;;;6.80;2.97;;;;;;;5.22;100.00;103101.81;4872873;29;20558;-65
2022/01/15 04:31:47;;;;;;;3.08;2.22;;;;;;;5.23;100.00;103092.22;4872779;29;20077;-65
2022/01/15 04:34:21;;;;;;;4.18;3.00;;;;;;;5.22;100.00;103095.72;4872205;29;20164;-65
2022/01/15 04:36:48;;;;;;;4.43;3.10;;;;;;;5.22;100.00;103093.06;4873659;29;20077;-66
2022/01/15 04:39:14;;;;;;;4.93;3.08;;;;;;;5.21;100.00;103078.16;4869749;29;21958;-65
2022/01/15 04:41:40;;;;;;;4.38;3.42;;;;;;;5.19;100.00;103078.16;4872717;29;20040;-65
2022/01/15 04:44:06;;;;;;;7.55;4.38;;;;;;;5.21;100.00;103075.53;4872312;29;20060;-65
2022/01/15 04:46:33;;;;;;;6.57;4.28;;;;;;;5.20;100.00;103071.16;4872628;29;20355;-65
2022/01/15 04:48:58;;;;;;;6.15;4.22;;;;;;;5.21;100.00;103068.53;4872356;29;20628;-65
2022/01/15 04:51:24;;;;;;;6.95;4.22;;;;;;;5.22;100.00;103056.31;4871852;29;20037;-65
2022/01/15 04:53:49;;;;;;;6.55;4.22;;;;;;;5.22;100.00;103058.94;4872173;29;20041;-65
2022/01/15 04:56:15;;;;;;;7.13;4.22;;;;;;;5.21;100.00;103063.28;4872999;29;20454;-65
2022/01/15 04:58:40;;;;;;;6.18;4.07;;;;;;;5.20;100.00;103072.03;4871810;29;21007;-65
2022/01/15 05:01:06;;;;;;;5.53;3.40;;;;;;;5.19;100.00;103065.03;4870968;29;21051;-65
2022/01/15 05:03:35;;;;;;;7.38;3.70;;;;;;;5.18;100.00;103062.38;4869153;29;20044;-66
2022/01/15 05:06:00;;;;;;;6.82;3.55;;;;;;;5.18;100.00;103062.38;4872058;29;20037;-66
2022/01/15 05:08:26;;;;;;;4.97;3.25;;;;;;;5.17;100.00;103056.22;4867202;29;20052;-66
2022/01/15 05:10:54;;;;;;;5.57;3.25;;;;;;;5.15;100.00;103052.72;4871943;29;20149;-66
2022/01/15 05:13:25;;;;;;;4.28;2.72;;;;;;;5.13;100.00;103054.44;4871872;29;21934;-66
2022/01/15 05:15:51;;;;;;;3.47;2.50;;;;;;;5.12;100.00;103057.94;4870912;29;20067;-66
2022/01/15 05:18:17;;;;;;;4.43;2.53;;;;;;;5.11;100.00;103049.16;4851837;29;20463;-66
2022/01/15 05:20:45;;;;;;;3.97;2.53;;;;;;;5.10;100.00;103049.13;4871727;29;20033;-66
2022/01/15 05:23:11;;;;;;;4.43;2.75;;;;;;;5.09;100.00;103057.88;4871160;29;20078;-66
2022/01/15 05:25:36;;;;;;;4.22;2.55;;;;;;;5.07;100.00;103056.97;4871511;29;20108;-66
2022/01/15 05:28:03;;;;;;;4.90;2.58;;;;;;;5.03;100.00;103049.03;4871283;29;20479;-66
2022/01/15 05:30:30;;;;;;;2.95;2.25;;;;;;;5.02;100.00;103047.28;4871822;29;20064;-66
2022/01/15 05:32:56;;;;;;;3.45;1.88;;;;;;;5.00;100.00;103043.78;4871047;29;20140;-66
2022/01/15 05:35:26;;;;;;;4.15;1.95;;;;;;;4.96;100.00;103041.94;4872114;29;20491;-66
2022/01/15 05:37:55;;;;;;;2.25;1.70;;;;;;;4.94;100.00;103042.78;4873360;29;20040;-66
2022/01/15 05:40:21;;;;;;;2.33;1.63;;;;;;;4.91;100.00;103035.78;4871882;29;20251;-65
2022/01/15 05:42:47;;;;;;;1.90;1.30;;;;;;;4.90;100.00;103034.00;4871604;29;20526;-66
2022/01/15 05:45:13;;;;;;;2.15;1.17;;;;;;;4.87;100.00;103027.00;4858206;29;20056;-67
2022/01/15 05:47:39;;;;;;;1.45;1.20;;;;;;;4.84;100.00;103031.28;4856658;29;20771;-66
2022/01/15 05:50:05;;;;;;;2.53;1.20;;;;;;;4.82;100.00;103028.66;4858250;29;20044;-65
2022/01/15 05:52:30;;;;;;;2.22;1.20;;;;;;;4.80;100.00;103022.47;4872868;29;20039;-66
2022/01/15 05:54:56;;;;;;;4.72;1.92;;;;;;;4.78;100.00;103018.09;4871968;29;20665;-66
2022/01/15 05:57:22;;;;;;;2.13;1.30;;;;;;;4.76;100.00;103016.31;4871139;29;20040;-65
2022/01/15 05:59:51;;;;;;;3.08;1.38;;;;;;;4.74;100.00;103023.28;4872097;29;20036;-66
2022/01/15 06:02:18;;;;;;;3.28;1.33;;;;;;;4.74;100.00;103019.81;4871069;29;20033;-66
2022/01/15 06:04:43;;;;;;;2.60;1.95;;;;;;;4.74;100.00;103015.41;4872233;29;20029;-66
2022/01/15 06:07:09;;;;;;;2.50;2.00;;;;;;;4.70;100.00;103008.38;4872387;29;20055;-66
2022/01/15 06:09:34;;;;;;;2.53;1.70;;;;;;;4.68;100.00;103014.47;4871801;29;21986;-66
2022/01/15 06:12:01;;;;;;;1.88;1.52;;;;;;;4.66;100.00;103021.41;4871555;29;20712;-66
2022/01/15 06:14:28;;;;;;;2.28;1.45;;;;;;;4.62;100.00;103017.88;4871020;29;20045;-66
2022/01/15 06:16:53;;;;;;;2.28;1.48;;;;;;;4.60;100.00;103016.97;4875224;29;20037;-66
2022/01/15 06:19:19;;;;;;;2.15;1.40;;;;;;;4.59;100.00;103002.94;4861818;29;20040;-66
2022/01/15 06:21:44;;;;;;;1.83;1.30;;;;;;;4.60;100.00;103011.72;4875298;29;21313;-66
2022/01/15 06:24:10;;;;;;;2.15;1.48;;;;;;;4.59;100.00;103009.97;4874767;29;20036;-66
2022/01/15 06:26:35;;;;;;;2.60;1.65;;;;;;;4.56;100.00;103012.53;4873214;29;20588;-65
2022/01/15 06:29:01;;;;;;;2.65;1.90;;;;;;;4.55;100.00;103013.38;4874341;29;20036;-65
2022/01/15 06:31:28;;;;;;;2.42;2.10;;;;;;;4.54;100.00;103006.38;4875128;29;20683;-66
2022/01/15 06:33:53;;;;;;;3.42;2.60;;;;;;;4.51;100.00;102985.38;4874575;29;20033;-66
2022/01/15 06:36:19;;;;;;;3.85;2.22;;;;;;;4.51;100.00;102986.22;4874847;29;20043;-66
2022/01/15 06:38:44;;;;;;;2.67;2.17;;;;;;;4.51;100.00;102995.84;4874603;29;20399;-66
2022/01/15 06:41:10;;;;;;;3.92;1.80;;;;;;;4.49;100.00;102994.06;4874698;29;20052;-66
2022/01/15 06:43:36;;;;;;;2.17;1.50;;;;;;;4.47;100.00;102989.69;4875175;29;20032;-66
2022/01/15 06:46:01;;;;;;;2.70;1.90;;;;;;;4.46;100.00;102978.28;4874838;29;20204;-65
2022/01/15 06:48:29;;;;;;;2.22;1.63;;;;;;;4.45;100.00;102973.03;4875427;29;20028;-65
2022/01/15 06:50:54;;;;;;;3.38;1.90;;;;;;;4.46;100.00;102975.69;4873646;29;20051;-65
2022/01/15 06:53:20;;;;;;;3.50;1.90;;;;;;;4.46;100.00;102983.53;4874515;29;20037;-65
2022/01/15 06:55:49;;;;;;;3.45;2.03;;;;;;;4.43;100.00;102983.50;4874373;29;20085;-65
2022/01/15 06:58:15;;;;;;;2.65;1.70;;;;;;;4.44;100.00;102973.88;4870937;29;20067;-65
2022/01/15 07:00:41;;;;;;;3.45;1.88;;;;;;;4.43;100.00;102986.13;4874930;29;20052;-65
2022/01/15 07:03:07;;;;;;;2.95;1.83;;;;;;;4.42;100.00;102983.47;4874612;29;20037;-65
2022/01/15 07:05:32;;;;;;;3.22;1.95;;;;;;;4.40;100.00;102980.84;4873212;29;20756;-65
2022/01/15 07:07:58;;;;;;;3.05;2.10;;;;;;;4.39;100.00;102975.56;4873818;29;20113;-65
2022/01/15 07:10:23;;;;;;;4.75;2.03;;;;;;;4.39;100.00;102970.31;4873326;29;20076;-65
2022/01/15 07:12:49;;;;;;;3.22;2.20;;;;;;;4.37;100.00;102967.69;4870868;29;20111;-65
2022/01/15 07:15:14;;;;;;;2.90;2.00;;;;;;;4.36;100.00;102963.28;4867386;29;20131;-66
2022/01/15 07:17:42;;;;;;;2.75;1.98;;;;;;;4.34;100.00;102962.38;4874848;29;20043;-65
2022/01/15 07:20:08;;;;;;;2.35;1.92;;;;;;;4.32;100.00;102964.09;4874853;29;20383;-65
2022/01/15 07:22:33;;;;;;;2.58;1.92;;;;;;;4.30;100.00;102960.59;4873254;29;20142;-64
2022/01/15 07:24:59;;;;;;;2.47;1.52;;;;;;;4.30;100.00;102965.84;4875080;29;20037;-70
2022/01/15 07:27:24;;;;;;;2.85;1.98;;;;;;;4.31;100.00;102967.59;4871634;29;20586;-66
2022/01/15 07:29:50;;;;;;;3.90;2.10;;;;;;;4.31;100.00;102962.34;4871407;29;20063;-67
2022/01/15 07:32:15;;;;;;;2.92;1.90;;;;;;;4.29;100.00;102959.69;4872207;29;20032;-64
2022/01/15 07:34:41;;;;;;;5.15;2.50;;;;;;;4.29;100.00;102964.03;4873118;29;20041;-64
2022/01/15 07:37:06;;;;;;;2.90;2.00;;;;;;;4.25;100.00;102963.13;4855690;29;20033;-65
2022/01/15 07:39:35;;;;;;;4.45;2.75;;;;;;;4.24;100.00;102970.97;4872147;29;20583;-66
2022/01/15 07:42:00;;;;;;;4.90;2.40;;;;;;;4.23;100.00;102972.72;4875562;29;20076;-66
2022/01/15 07:44:26;;;;;;;4.68;2.75;;;;;;;4.21;100.00;102962.19;4874213;29;20040;-66
2022/01/15 07:46:54;;;;;;;4.32;2.25;;;;;;;4.23;100.00;102958.72;4872784;29;20036;-65
2022/01/15 07:49:20;;;;;;;4.93;2.40;;;;;;;4.22;100.00;102970.94;4873312;29;20419;-65
2022/01/15 07:51:46;;;;;;;3.85;2.70;;;;;;;4.20;100.00;102964.81;4867769;29;20407;-64
2022/01/15 07:54:11;;;;;;;4.43;2.65;;;;;;;4.17;100.00;102964.75;4873206;29;20032;-65
2022/01/15 07:56:37;;;;;;;5.05;2.83;;;;;;;4.15;100.00;102966.47;4870934;29;20663;-66
2022/01/15 07:59:03;;;;;;;3.92;2.50;;;;;;;4.13;100.00;102970.81;4872578;29;21183;-65
2022/01/15 08:01:28;;;;;;;5.15;2.92;;;;;;;4.11;100.00;102965.53;4868383;29;20055;-65
2022/01/15 08:03:54;;;;;;;4.38;3.00;;;;;;;4.08;100.00;102963.75;4871866;29;20053;-66
2022/01/15 08:06:19;;;;;;;6.50;3.42;;;;;;;4.07;100.00;102963.72;4864593;29;20150;-65
2022/01/15 08:08:45;;;;;;;5.28;3.30;;;;;;;4.07;100.00;102974.19;4868650;29;20044;-64
2022/01/15 08:11:10;;;;;;;5.78;3.20;;;;;;;4.06;100.00;102964.56;4855532;29;20537;-65
2022/01/15 08:13:36;;;;;;;6.60;3.70;;;;;;;4.06;100.00;102964.56;4871366;29;20972;-65
2022/01/15 08:16:02;;;;;;;5.53;3.17;;;;;;;4.06;100.00;102962.84;4857935;29;20527;-65
2022/01/15 08:18:28;;;;;;;6.25;3.78;;;;;;;4.07;100.00;102961.09;4872347;29;20765;-65
2022/01/15 08:20:54;;;;;;;6.65;3.80;;;;;;;4.07;100.00;102971.59;4872214;29;20854;-65
2022/01/15 08:23:20;;;;;;;7.43;4.50;;;;;;;4.05;100.00;102965.44;4872563;29;20091;-65
2022/01/15 08:25:45;;;;;;;7.53;4.50;;;;;;;4.05;100.00;102954.97;4874349;29;20032;-67
2022/01/15 08:28:11;;;;;;;7.13;4.45;;;;;;;4.07;100.00;102953.22;4870434;29;20063;-66
2022/01/15 08:30:37;;;;;;;7.43;4.47;;;;;;;4.06;100.00;102956.72;4872021;29;20041;-66
2022/01/15 08:33:02;;;;;;;7.05;4.35;;;;;;;4.07;100.00;102963.72;4872024;29;20036;-65
2022/01/15 08:35:28;;;;;;;7.95;4.45;;;;;;;4.08;100.00;102960.22;4871352;29;20513;-66
2022/01/15 08:37:54;;;;;;;9.43;4.72;;;;;;;4.10;100.00;102963.78;4849802;29;20036;-65
2022/01/15 08:40:21;;;;;;;7.38;4.28;;;;;;;4.08;100.00;102971.63;4874743;29;20056;-65
2022/01/15 08:42:47;;;;;;;8.07;4.40;;;;;;;4.11;100.00;102965.53;4858559;29;20051;-65
2022/01/15 08:45:14;;;;;;;8.43;4.13;;;;;;;4.13;100.00;102970.81;4875465;29;20069;-65
2022/01/15 08:47:40;;;;;;;8.27;4.22;;;;;;;4.13;100.00;102961.19;4873284;29;20171;-65
2022/01/15 08:50:07;;;;;;;8.43;4.47;;;;;;;4.15;100.00;102962.09;4874752;29;21115;-65
2022/01/15 08:52:34;;;;;;;8.98;4.63;;;;;;;4.15;100.00;102962.09;4875041;29;20059;-65
2022/01/15 08:55:00;;;;;;;9.68;4.22;;;;;;;4.17;100.00;102960.41;4856533;29;20096;-65
2022/01/15 08:57:25;;;;;;;6.72;3.58;;;;;;;4.18;100.00;102964.78;4874686;29;20399;-65
2022/01/15 08:59:51;;;;;;;6.78;3.58;;;;;;;4.18;100.00;102953.38;4875514;29;20091;-65
2022/01/15 09:02:16;;;;;;;8.32;4.05;;;;;;;4.19;100.00;102953.44;4875220;29;20484;-65
2022/01/15 09:04:43;;;;;;;5.78;3.40;;;;;;;4.19;100.00;102956.03;4874833;29;20037;-65
2022/01/15 09:11:18;;;;;;;6.32;3.38;;;;;;;4.17;100.00;102955.16;4882388;29;20048;-65
2022/01/15 09:17:08;;;;;;;7.00;3.65;;;;;;;4.16;100.00;102950.78;4878352;29;20131;-65
2022/01/15 09:19:34;;;;;;;6.63;3.90;;;;;;;4.16;100.00;102953.38;4870740;29;20085;-65
2022/01/15 09:22:00;;;;;;;7.50;3.92;;;;;;;4.13;100.00;102949.84;4870799;29;20898;-65
2022/01/15 09:24:26;;;;;;;6.97;4.20;;;;;;;4.13;100.00;102948.09;4873236;29;20028;-65
2022/01/15 09:32:05;;;;;;;7.35;4.30;;;;;;;4.16;100.00;102947.25;4874779;29;20044;-65
2022/01/15 09:34:34;;;;;;;7.25;4.00;;;;;;;4.17;100.00;102949.00;4874498;29;20041;-65
2022/01/15 09:37:00;;;;;;;6.97;4.07;;;;;;;4.16;100.00;102948.16;4874668;29;20696;-65
2022/01/15 09:39:26;;;;;;;6.93;3.97;;;;;;;4.18;100.00;102935.94;4856665;29;20666;-65
2022/01/15 09:41:54;;;;;;;8.00;4.80;;;;;;;4.18;100.00;102932.41;4856186;29;20101;-65
2022/01/15 09:44:20;;;;;;;7.70;4.40;;;;;;;4.19;100.00;102935.06;4874798;29;20043;-65
2022/01/15 09:46:46;;;;;;;8.13;4.55;;;;;;;4.19;100.00;102939.41;4874416;29;20045;-65
2022/01/15 09:49:14;;;;;;;5.80;3.58;;;;;;;4.19;100.00;102929.81;4874018;29;20507;-65
2022/01/15 09:51:40;;;;;;;5.82;3.58;;;;;;;4.17;100.00;102931.56;4877449;29;20093;-65
2022/01/15 09:54:06;;;;;;;6.72;4.10;;;;;;;4.15;100.00;102925.38;4877964;29;20139;-65
2022/01/15 09:56:31;;;;;;;7.50;4.63;;;;;;;4.16;100.00;102927.19;4877957;29;20044;-65
2022/01/15 09:58:58;;;;;;;8.63;4.30;;;;;;;4.17;100.00;102918.44;4877593;29;20507;-65
2022/01/15 10:01:27;;;;;;;7.78;4.57;;;;;;;4.18;100.00;102920.19;4872297;29;20980;-65
2022/01/15 10:03:52;;;;;;;7.45;4.05;;;;;;;4.19;100.00;102921.97;4877779;29;20060;-64
2022/01/15 10:06:18;;;;;;;7.93;4.43;;;;;;;4.19;100.00;102916.72;4877759;29;20036;-65
2022/01/15 10:09:05;;;;;;;6.53;4.00;;;;;;;4.19;100.00;102915.81;4877869;29;20045;-65
2022/01/15 10:11:52;;;;;;;7.72;4.57;;;;;;;4.21;100.00;102907.13;4877867;29;20108;-65
2022/01/15 10:14:33;;;;;;;7.80;4.03;;;;;;;4.21;100.00;102915.00;4878172;29;20047;-65
2022/01/15 10:17:05;;;;;;;9.02;3.85;;;;;;;4.20;100.00;102909.75;4877583;29;20040;-65
2022/01/15 10:19:35;;;;;;;7.43;3.45;;;;;;;4.18;100.00;102912.34;4870781;29;20040;-65
2022/01/15 10:22:17;;;;;;;7.97;4.43;;;;;;;4.15;100.00;102912.28;4876360;29;20135;-65
2022/01/15 10:24:53;;;;;;;8.45;4.55;;;;;;;4.13;100.00;102906.13;4857997;29;20356;-65
2022/01/15 10:27:35;;;;;;;8.55;4.60;;;;;;;4.14;100.00;102902.66;4877695;29;20115;-65
2022/01/15 10:30:12;;;;;;;8.73;4.75;;;;;;;4.14;100.00;102907.03;4877039;29;20040;-65
2022/01/15 10:33:01;;;;;;;9.00;4.45;;;;;;;4.13;100.00;102911.38;4877868;29;20039;-65
2022/01/15 10:35:31;;;;;;;7.80;4.15;;;;;;;4.12;100.00;102914.88;4877034;29;20037;-66
2022/01/15 10:37:59;;;;;;;9.35;4.97;;;;;;;4.14;100.00;102914.91;4877236;29;20491;-65
2022/01/15 10:40:28;;;;;;;12.05;6.22;;;;;;;4.16;100.00;102908.81;4877144;29;20589;-65
2022/01/15 10:42:56;;;;;;;12.20;6.10;;;;;;;4.17;100.00;102904.44;4877628;29;20032;-65
2022/01/15 10:45:23;;;;;;;11.45;6.35;;;;;;;4.17;100.00;102910.56;4877247;29;20176;-65
2022/01/15 10:47:53;;;;;;;16.13;7.53;;;;;;;4.18;100.00;102911.44;4854617;29;20141;-65
2022/01/15 10:50:33;;;;;;;20.95;7.78;;;;;;;4.19;100.00;102910.56;4877175;29;20532;-65
2022/01/15 10:53:11;;;;;;;22.25;9.63;;;;;;;4.18;100.00;102901.84;4876965;29;20048;-65
2022/01/15 10:55:38;;;;;;;19.42;9.32;;;;;;;4.17;100.00;102897.47;4876503;29;20652;-65
2022/01/15 10:58:06;;;;;;;20.90;9.60;;;;;;;4.16;100.00;102890.47;4876799;29;20492;-65
2022/01/15 11:00:46;;;;;;;20.90;9.55;;;;;;;4.15;100.00;102883.44;4856560;29;20048;-65
2022/01/15 11:03:18;;;;;;;22.48;10.30;;;;;;;4.16;100.00;102879.97;4876587;29;20044;-65
2022/01/15 11:05:44;;;;;;;15.38;7.32;;;;;;;4.15;100.00;102883.44;4876593;29;20065;-65
2022/01/15 11:08:09;;;;;;;18.27;9.75;;;;;;;4.15;100.00;102875.56;4877196;29;20183;-65
2022/01/15 11:11:05;;;;;;;22.92;10.70;;;;;;;4.15;100.00;102867.69;4876487;29;20044;-65
2022/01/15 11:13:41;;;;;;;23.52;11.10;;;;;;;4.14;100.00;102860.69;4876890;29;20052;-65
2022/01/15 11:16:10;;;;;;;25.58;12.40;;;;;;;4.12;100.00;102857.19;4876499;29;20040;-65
2022/01/15 11:18:41;;;;;;;31.80;13.88;;;;;;;4.06;100.00;102851.84;4876717;29;20500;-65
2022/01/15 11:21:12;;;;;;;33.92;15.35;;;;;;;4.04;100.00;102848.34;4863310;29;20416;-65
2022/01/15 11:23:39;;;;;;;34.20;14.63;;;;;;;4.02;100.00;102836.94;4876744;29;20053;-64
2022/01/15 11:26:16;;;;;;;40.88;17.10;;;;;;;3.99;100.00;102826.41;4875972;29;20361;-64
2022/01/15 11:28:43;;;;;;;47.75;17.95;;;;;;;3.97;100.00;102826.38;4873324;29;20057;-65
2022/01/15 11:31:19;;;;;;;40.08;17.90;;;;;;;3.96;100.00;102815.91;4851854;29;20031;-66
2022/01/15 11:33:48;;;;;;;56.95;22.67;;;;;;;3.96;100.00;102814.16;4873889;29;20043;-66
2022/01/15 11:36:27;;;;;;;50.35;19.20;;;;;;;3.96;100.00;102818.53;4871508;29;20123;-64
2022/01/15 11:38:52;;;;;;;36.85;16.95;;;;;;;3.93;100.00;102825.47;4874915;29;20377;-64
2022/01/15 11:41:27;;;;;;;39.78;18.33;;;;;;;3.93;100.00;102817.59;4874226;29;20535;-64
2022/01/15 11:43:57;;;;;;;36.40;15.98;;;;;;;3.92;100.00;102817.59;4855994;29;20047;-64
2022/01/15 11:46:26;;;;;;;30.65;13.65;;;;;;;3.89;100.00;102820.16;4874808;29;20055;-65
2022/01/15 11:48:52;;;;;;;29.30;13.93;;;;;;;3.85;100.00;102810.47;4874685;29;20036;-64
2022/01/15 11:51:18;;;;;;;31.30;13.60;;;;;;;3.83;100.00;102802.63;4872489;29;20063;-64
2022/01/15 11:54:12;;;;;;;31.73;14.30;;;;;;;3.81;100.00;102799.06;4873817;29;20380;-64